sensor_id;sensor_type;location;lat;lon;timestamp;P1;durP1;ratioP1;P2;durP2;ratioP2
6388;SDS011;3227;42.654;23.360;2023-06-22T00:01:00;10.27;;;7.65;;
6388;SDS011;3227;42.654;23.360;2023-06-22T00:03:26;11.25;;;7.45;;
6388;SDS011;3227;42.654;23.360;2023-06-22T00:05:53;12.85;;;8.40;;
6388;SDS011;3227;42.654;23.360;2023-06-22T00:08:21;11.40;;;7.55;;
6388;SDS011;3227;42.654;23.360;2023-06-22T00:10:49;14.85;;;7.57;;
6388;SDS011;3227;42.654;23.360;2023-06-22T00:13:16;11.65;;;7.45;;
6388;SDS011;3227;42.654;23.360;2023-06-22T00:15:43;10.20;;;6.90;;
6388;SDS011;3227;42.654;23.360;2023-06-22T00:18:10;10.18;;;7.28;;
6388;SDS011;3227;42.654;23.360;2023-06-22T00:20:38;11.73;;;7.90;;
6388;SDS011;3227;42.654;23.360;2023-06-22T00:23:05;13.18;;;7.50;;
6388;SDS011;3227;42.654;23.360;2023-06-22T00:25:33;10.98;;;7.75;;
6388;SDS011;3227;42.654;23.360;2023-06-22T00:28:02;18.30;;;7.95;;
6388;SDS011;3227;42.654;23.360;2023-06-22T00:30:30;17.08;;;8.25;;
6388;SDS011;3227;42.654;23.360;2023-06-22T00:32:57;16.20;;;8.88;;
6388;SDS011;3227;42.654;23.360;2023-06-22T00:35:24;12.32;;;8.55;;
6388;SDS011;3227;42.654;23.360;2023-06-22T00:37:54;11.32;;;7.80;;
6388;SDS011;3227;42.654;23.360;2023-06-22T00:40:25;19.00;;;8.35;;
6388;SDS011;3227;42.654;23.360;2023-06-22T00:42:52;18.23;;;8.52;;
6388;SDS011;3227;42.654;23.360;2023-06-22T00:45:21;15.30;;;8.02;;
6388;SDS011;3227;42.654;23.360;2023-06-22T00:47:48;12.02;;;8.13;;
6388;SDS011;3227;42.654;23.360;2023-06-22T00:50:16;14.18;;;8.40;;
6388;SDS011;3227;42.654;23.360;2023-06-22T00:52:46;14.93;;;8.02;;
6388;SDS011;3227;42.654;23.360;2023-06-22T00:55:14;11.82;;;8.23;;
6388;SDS011;3227;42.654;23.360;2023-06-22T00:57:43;13.32;;;8.65;;
6388;SDS011;3227;42.654;23.360;2023-06-22T01:00:11;14.60;;;8.55;;
6388;SDS011;3227;42.654;23.360;2023-06-22T01:02:44;15.75;;;8.32;;
6388;SDS011;3227;42.654;23.360;2023-06-22T01:05:13;12.20;;;7.70;;
6388;SDS011;3227;42.654;23.360;2023-06-22T01:07:42;14.23;;;8.27;;
6388;SDS011;3227;42.654;23.360;2023-06-22T01:10:21;13.80;;;8.35;;
6388;SDS011;3227;42.654;23.360;2023-06-22T01:12:57;10.73;;;7.45;;
6388;SDS011;3227;42.654;23.360;2023-06-22T01:15:28;14.70;;;8.85;;
6388;SDS011;3227;42.654;23.360;2023-06-22T01:17:59;13.65;;;8.07;;
6388;SDS011;3227;42.654;23.360;2023-06-22T01:20:28;11.70;;;8.00;;
6388;SDS011;3227;42.654;23.360;2023-06-22T01:23:02;12.52;;;8.07;;
6388;SDS011;3227;42.654;23.360;2023-06-22T01:25:43;15.02;;;8.75;;
6388;SDS011;3227;42.654;23.360;2023-06-22T01:28:17;12.30;;;8.40;;
6388;SDS011;3227;42.654;23.360;2023-06-22T01:30:52;10.50;;;7.90;;
6388;SDS011;3227;42.654;23.360;2023-06-22T01:33:31;34.95;;;9.30;;
6388;SDS011;3227;42.654;23.360;2023-06-22T01:36:00;11.02;;;7.63;;
6388;SDS011;3227;42.654;23.360;2023-06-22T01:38:28;14.57;;;8.32;;
6388;SDS011;3227;42.654;23.360;2023-06-22T01:40:56;12.18;;;8.32;;
6388;SDS011;3227;42.654;23.360;2023-06-22T01:43:24;13.10;;;8.10;;
6388;SDS011;3227;42.654;23.360;2023-06-22T01:45:54;12.05;;;8.32;;
6388;SDS011;3227;42.654;23.360;2023-06-22T01:48:21;13.45;;;9.07;;
6388;SDS011;3227;42.654;23.360;2023-06-22T01:50:51;13.27;;;8.30;;
6388;SDS011;3227;42.654;23.360;2023-06-22T01:53:18;11.80;;;8.98;;
6388;SDS011;3227;42.654;23.360;2023-06-22T01:55:46;12.27;;;8.50;;
6388;SDS011;3227;42.654;23.360;2023-06-22T01:58:13;12.80;;;8.40;;
6388;SDS011;3227;42.654;23.360;2023-06-22T02:00:40;12.85;;;8.27;;
6388;SDS011;3227;42.654;23.360;2023-06-22T02:03:16;11.90;;;8.43;;
6388;SDS011;3227;42.654;23.360;2023-06-22T02:05:47;11.85;;;8.60;;
6388;SDS011;3227;42.654;23.360;2023-06-22T02:08:17;11.27;;;8.25;;
6388;SDS011;3227;42.654;23.360;2023-06-22T02:10:47;11.75;;;8.35;;
6388;SDS011;3227;42.654;23.360;2023-06-22T02:13:15;14.15;;;8.32;;
6388;SDS011;3227;42.654;23.360;2023-06-22T02:15:43;12.40;;;8.40;;
6388;SDS011;3227;42.654;23.360;2023-06-22T02:18:11;14.63;;;9.25;;
6388;SDS011;3227;42.654;23.360;2023-06-22T02:20:39;13.00;;;8.68;;
6388;SDS011;3227;42.654;23.360;2023-06-22T02:23:06;10.90;;;8.27;;
6388;SDS011;3227;42.654;23.360;2023-06-22T02:25:34;12.82;;;8.85;;
6388;SDS011;3227;42.654;23.360;2023-06-22T02:28:01;13.10;;;8.40;;
6388;SDS011;3227;42.654;23.360;2023-06-22T02:30:28;11.82;;;8.38;;
6388;SDS011;3227;42.654;23.360;2023-06-22T02:32:55;12.68;;;8.45;;
6388;SDS011;3227;42.654;23.360;2023-06-22T02:35:25;10.45;;;7.47;;
6388;SDS011;3227;42.654;23.360;2023-06-22T02:37:53;12.27;;;7.68;;
6388;SDS011;3227;42.654;23.360;2023-06-22T02:40:20;10.27;;;7.82;;
6388;SDS011;3227;42.654;23.360;2023-06-22T02:42:47;13.43;;;8.65;;
6388;SDS011;3227;42.654;23.360;2023-06-22T02:45:14;14.85;;;8.43;;
6388;SDS011;3227;42.654;23.360;2023-06-22T02:47:41;14.57;;;8.45;;
6388;SDS011;3227;42.654;23.360;2023-06-22T02:50:08;11.50;;;7.90;;
6388;SDS011;3227;42.654;23.360;2023-06-22T02:52:35;13.07;;;9.40;;
6388;SDS011;3227;42.654;23.360;2023-06-22T02:55:05;16.13;;;8.80;;
6388;SDS011;3227;42.654;23.360;2023-06-22T02:57:33;16.05;;;8.48;;
6388;SDS011;3227;42.654;23.360;2023-06-22T03:00:01;14.45;;;8.50;;
6388;SDS011;3227;42.654;23.360;2023-06-22T03:02:38;12.27;;;8.07;;
6388;SDS011;3227;42.654;23.360;2023-06-22T03:05:05;10.98;;;8.48;;
6388;SDS011;3227;42.654;23.360;2023-06-22T03:07:39;12.30;;;8.18;;
6388;SDS011;3227;42.654;23.360;2023-06-22T03:10:08;12.80;;;8.32;;
6388;SDS011;3227;42.654;23.360;2023-06-22T03:12:36;13.95;;;8.50;;
6388;SDS011;3227;42.654;23.360;2023-06-22T03:15:04;15.65;;;8.32;;
6388;SDS011;3227;42.654;23.360;2023-06-22T03:17:32;15.50;;;8.20;;
6388;SDS011;3227;42.654;23.360;2023-06-22T03:19:59;12.98;;;8.43;;
6388;SDS011;3227;42.654;23.360;2023-06-22T03:22:26;12.75;;;8.27;;
6388;SDS011;3227;42.654;23.360;2023-06-22T03:24:53;15.98;;;8.30;;
6388;SDS011;3227;42.654;23.360;2023-06-22T03:27:21;12.65;;;8.20;;
6388;SDS011;3227;42.654;23.360;2023-06-22T03:29:48;15.43;;;8.23;;
6388;SDS011;3227;42.654;23.360;2023-06-22T03:32:14;15.05;;;8.35;;
6388;SDS011;3227;42.654;23.360;2023-06-22T03:34:41;16.38;;;8.73;;
6388;SDS011;3227;42.654;23.360;2023-06-22T03:37:12;16.90;;;8.90;;
6388;SDS011;3227;42.654;23.360;2023-06-22T03:39:39;15.55;;;8.70;;
6388;SDS011;3227;42.654;23.360;2023-06-22T03:42:06;13.85;;;8.52;;
6388;SDS011;3227;42.654;23.360;2023-06-22T03:44:35;15.23;;;8.45;;
6388;SDS011;3227;42.654;23.360;2023-06-22T03:47:02;19.10;;;8.23;;
6388;SDS011;3227;42.654;23.360;2023-06-22T03:49:30;13.82;;;8.07;;
6388;SDS011;3227;42.654;23.360;2023-06-22T03:51:56;14.77;;;8.40;;
6388;SDS011;3227;42.654;23.360;2023-06-22T03:54:23;16.33;;;8.32;;
6388;SDS011;3227;42.654;23.360;2023-06-22T03:56:50;13.73;;;8.80;;
6388;SDS011;3227;42.654;23.360;2023-06-22T03:59:17;16.63;;;8.88;;
6388;SDS011;3227;42.654;23.360;2023-06-22T04:01:45;16.25;;;9.32;;
6388;SDS011;3227;42.654;23.360;2023-06-22T04:04:12;15.18;;;9.13;;
6388;SDS011;3227;42.654;23.360;2023-06-22T04:06:39;16.17;;;9.82;;
6388;SDS011;3227;42.654;23.360;2023-06-22T04:09:05;23.52;;;10.02;;
6388;SDS011;3227;42.654;23.360;2023-06-22T04:11:32;18.33;;;9.80;;
6388;SDS011;3227;42.654;23.360;2023-06-22T04:13:59;15.77;;;9.60;;
6388;SDS011;3227;42.654;23.360;2023-06-22T04:16:26;15.88;;;10.52;;
6388;SDS011;3227;42.654;23.360;2023-06-22T04:18:54;16.23;;;9.93;;
6388;SDS011;3227;42.654;23.360;2023-06-22T04:21:21;16.15;;;9.60;;
6388;SDS011;3227;42.654;23.360;2023-06-22T04:23:48;19.27;;;10.30;;
6388;SDS011;3227;42.654;23.360;2023-06-22T04:26:15;17.88;;;10.02;;
6388;SDS011;3227;42.654;23.360;2023-06-22T04:28:41;16.13;;;9.82;;
6388;SDS011;3227;42.654;23.360;2023-06-22T04:31:08;15.15;;;9.88;;
6388;SDS011;3227;42.654;23.360;2023-06-22T04:33:36;12.82;;;9.50;;
6388;SDS011;3227;42.654;23.360;2023-06-22T04:36:07;15.57;;;10.13;;
6388;SDS011;3227;42.654;23.360;2023-06-22T04:38:34;19.42;;;10.25;;
6388;SDS011;3227;42.654;23.360;2023-06-22T04:41:00;19.17;;;11.52;;
6388;SDS011;3227;42.654;23.360;2023-06-22T04:43:28;25.40;;;11.07;;
6388;SDS011;3227;42.654;23.360;2023-06-22T04:45:55;17.33;;;11.02;;
6388;SDS011;3227;42.654;23.360;2023-06-22T04:48:28;14.38;;;10.32;;
6388;SDS011;3227;42.654;23.360;2023-06-22T04:50:57;15.45;;;9.90;;
6388;SDS011;3227;42.654;23.360;2023-06-22T04:53:31;16.88;;;10.45;;
6388;SDS011;3227;42.654;23.360;2023-06-22T04:55:58;17.38;;;9.45;;
6388;SDS011;3227;42.654;23.360;2023-06-22T04:58:25;18.27;;;11.20;;
6388;SDS011;3227;42.654;23.360;2023-06-22T05:00:53;16.40;;;9.85;;
6388;SDS011;3227;42.654;23.360;2023-06-22T05:03:22;15.88;;;10.32;;
6388;SDS011;3227;42.654;23.360;2023-06-22T05:05:51;14.80;;;10.48;;
6388;SDS011;3227;42.654;23.360;2023-06-22T05:08:18;24.58;;;10.18;;
6388;SDS011;3227;42.654;23.360;2023-06-22T05:10:46;20.00;;;11.82;;
6388;SDS011;3227;42.654;23.360;2023-06-22T05:13:13;17.30;;;10.20;;
6388;SDS011;3227;42.654;23.360;2023-06-22T05:15:40;19.40;;;12.25;;
6388;SDS011;3227;42.654;23.360;2023-06-22T05:18:06;14.55;;;11.10;;
6388;SDS011;3227;42.654;23.360;2023-06-22T05:20:33;14.50;;;10.38;;
6388;SDS011;3227;42.654;23.360;2023-06-22T05:23:01;19.15;;;11.35;;
6388;SDS011;3227;42.654;23.360;2023-06-22T05:25:28;16.13;;;11.10;;
6388;SDS011;3227;42.654;23.360;2023-06-22T05:27:59;14.27;;;10.73;;
6388;SDS011;3227;42.654;23.360;2023-06-22T05:30:25;19.20;;;12.52;;
6388;SDS011;3227;42.654;23.360;2023-06-22T05:32:53;14.88;;;10.77;;
6388;SDS011;3227;42.654;23.360;2023-06-22T05:35:20;17.52;;;11.88;;
6388;SDS011;3227;42.654;23.360;2023-06-22T05:37:47;18.63;;;12.70;;
6388;SDS011;3227;42.654;23.360;2023-06-22T05:40:14;19.70;;;12.15;;
6388;SDS011;3227;42.654;23.360;2023-06-22T05:42:40;24.33;;;12.15;;
6388;SDS011;3227;42.654;23.360;2023-06-22T05:45:09;16.25;;;10.30;;
6388;SDS011;3227;42.654;23.360;2023-06-22T05:47:36;17.30;;;11.93;;
6388;SDS011;3227;42.654;23.360;2023-06-22T05:50:03;15.82;;;12.13;;
6388;SDS011;3227;42.654;23.360;2023-06-22T05:52:31;16.38;;;10.48;;
6388;SDS011;3227;42.654;23.360;2023-06-22T05:54:58;19.08;;;12.25;;
6388;SDS011;3227;42.654;23.360;2023-06-22T05:57:25;18.35;;;13.63;;
6388;SDS011;3227;42.654;23.360;2023-06-22T05:59:52;20.15;;;13.73;;
6388;SDS011;3227;42.654;23.360;2023-06-22T06:02:21;17.58;;;12.68;;
6388;SDS011;3227;42.654;23.360;2023-06-22T06:04:47;23.65;;;11.48;;
6388;SDS011;3227;42.654;23.360;2023-06-22T06:07:16;18.95;;;10.60;;
6388;SDS011;3227;42.654;23.360;2023-06-22T06:09:43;19.40;;;10.20;;
6388;SDS011;3227;42.654;23.360;2023-06-22T06:12:09;17.10;;;11.57;;
6388;SDS011;3227;42.654;23.360;2023-06-22T06:14:36;17.55;;;10.45;;
6388;SDS011;3227;42.654;23.360;2023-06-22T06:17:03;17.10;;;10.77;;
6388;SDS011;3227;42.654;23.360;2023-06-22T06:19:31;16.33;;;10.85;;
6388;SDS011;3227;42.654;23.360;2023-06-22T06:21:58;15.82;;;10.90;;
6388;SDS011;3227;42.654;23.360;2023-06-22T06:24:25;18.58;;;10.15;;
6388;SDS011;3227;42.654;23.360;2023-06-22T06:26:52;15.77;;;9.88;;
6388;SDS011;3227;42.654;23.360;2023-06-22T06:29:19;16.83;;;11.13;;
6388;SDS011;3227;42.654;23.360;2023-06-22T06:31:46;15.10;;;11.15;;
6388;SDS011;3227;42.654;23.360;2023-06-22T06:34:13;16.23;;;9.75;;
6388;SDS011;3227;42.654;23.360;2023-06-22T06:36:41;14.77;;;8.90;;
6388;SDS011;3227;42.654;23.360;2023-06-22T06:39:09;15.68;;;9.43;;
6388;SDS011;3227;42.654;23.360;2023-06-22T06:41:36;18.70;;;10.45;;
6388;SDS011;3227;42.654;23.360;2023-06-22T06:44:03;18.88;;;9.98;;
6388;SDS011;3227;42.654;23.360;2023-06-22T06:46:30;14.30;;;8.95;;
6388;SDS011;3227;42.654;23.360;2023-06-22T06:48:57;17.13;;;9.13;;
6388;SDS011;3227;42.654;23.360;2023-06-22T06:51:23;17.23;;;10.77;;
6388;SDS011;3227;42.654;23.360;2023-06-22T06:53:52;20.40;;;8.52;;
6388;SDS011;3227;42.654;23.360;2023-06-22T06:56:18;14.13;;;8.73;;
6388;SDS011;3227;42.654;23.360;2023-06-22T06:58:45;17.25;;;9.65;;
6388;SDS011;3227;42.654;23.360;2023-06-22T07:01:12;23.60;;;10.75;;
6388;SDS011;3227;42.654;23.360;2023-06-22T07:03:39;17.05;;;11.13;;
6388;SDS011;3227;42.654;23.360;2023-06-22T07:06:06;18.90;;;11.30;;
6388;SDS011;3227;42.654;23.360;2023-06-22T07:08:32;15.95;;;10.75;;
6388;SDS011;3227;42.654;23.360;2023-06-22T07:11:01;20.30;;;12.15;;
6388;SDS011;3227;42.654;23.360;2023-06-22T07:13:28;16.42;;;10.75;;
6388;SDS011;3227;42.654;23.360;2023-06-22T07:15:55;16.13;;;10.25;;
6388;SDS011;3227;42.654;23.360;2023-06-22T07:18:22;15.32;;;11.05;;
6388;SDS011;3227;42.654;23.360;2023-06-22T07:20:49;18.63;;;12.20;;
6388;SDS011;3227;42.654;23.360;2023-06-22T07:23:16;18.40;;;11.02;;
6388;SDS011;3227;42.654;23.360;2023-06-22T07:25:43;16.55;;;11.27;;
6388;SDS011;3227;42.654;23.360;2023-06-22T07:28:11;15.00;;;10.82;;
6388;SDS011;3227;42.654;23.360;2023-06-22T07:30:38;16.30;;;10.43;;
6388;SDS011;3227;42.654;23.360;2023-06-22T07:33:05;15.70;;;11.13;;
6388;SDS011;3227;42.654;23.360;2023-06-22T07:35:33;18.58;;;11.70;;
6388;SDS011;3227;42.654;23.360;2023-06-22T07:38:00;16.73;;;9.70;;
6388;SDS011;3227;42.654;23.360;2023-06-22T07:40:27;17.30;;;10.85;;
6388;SDS011;3227;42.654;23.360;2023-06-22T07:42:53;16.50;;;11.43;;
6388;SDS011;3227;42.654;23.360;2023-06-22T07:45:37;19.85;;;12.07;;
6388;SDS011;3227;42.654;23.360;2023-06-22T07:48:05;20.20;;;10.95;;
6388;SDS011;3227;42.654;23.360;2023-06-22T07:50:32;17.98;;;10.70;;
6388;SDS011;3227;42.654;23.360;2023-06-22T07:52:59;17.50;;;10.35;;
6388;SDS011;3227;42.654;23.360;2023-06-22T07:55:26;18.38;;;10.85;;
6388;SDS011;3227;42.654;23.360;2023-06-22T07:57:52;16.45;;;11.52;;
6388;SDS011;3227;42.654;23.360;2023-06-22T08:00:19;15.23;;;9.98;;
6388;SDS011;3227;42.654;23.360;2023-06-22T08:02:48;17.35;;;11.32;;
6388;SDS011;3227;42.654;23.360;2023-06-22T08:05:15;18.17;;;11.13;;
6388;SDS011;3227;42.654;23.360;2023-06-22T08:07:42;16.98;;;10.60;;
6388;SDS011;3227;42.654;23.360;2023-06-22T08:10:10;16.75;;;10.68;;
6388;SDS011;3227;42.654;23.360;2023-06-22T08:12:37;14.85;;;11.00;;
6388;SDS011;3227;42.654;23.360;2023-06-22T08:15:05;13.30;;;10.20;;
6388;SDS011;3227;42.654;23.360;2023-06-22T08:17:34;15.57;;;10.60;;
6388;SDS011;3227;42.654;23.360;2023-06-22T08:20:04;18.42;;;9.60;;
6388;SDS011;3227;42.654;23.360;2023-06-22T08:22:34;16.63;;;10.43;;
6388;SDS011;3227;42.654;23.360;2023-06-22T08:25:01;12.40;;;9.52;;
6388;SDS011;3227;42.654;23.360;2023-06-22T08:27:29;18.85;;;10.70;;
6388;SDS011;3227;42.654;23.360;2023-06-22T08:29:56;14.35;;;10.75;;
6388;SDS011;3227;42.654;23.360;2023-06-22T08:32:24;20.88;;;9.80;;
6388;SDS011;3227;42.654;23.360;2023-06-22T08:34:51;14.15;;;10.40;;
6388;SDS011;3227;42.654;23.360;2023-06-22T08:37:19;14.55;;;9.85;;
6388;SDS011;3227;42.654;23.360;2023-06-22T08:39:48;18.23;;;10.38;;
6388;SDS011;3227;42.654;23.360;2023-06-22T08:42:15;17.13;;;9.45;;
6388;SDS011;3227;42.654;23.360;2023-06-22T08:44:42;12.82;;;8.98;;
6388;SDS011;3227;42.654;23.360;2023-06-22T08:47:09;13.52;;;10.23;;
6388;SDS011;3227;42.654;23.360;2023-06-22T08:49:36;14.63;;;10.35;;
6388;SDS011;3227;42.654;23.360;2023-06-22T08:52:06;20.25;;;11.43;;
6388;SDS011;3227;42.654;23.360;2023-06-22T08:54:35;17.25;;;11.05;;
6388;SDS011;3227;42.654;23.360;2023-06-22T08:57:02;15.85;;;10.88;;
6388;SDS011;3227;42.654;23.360;2023-06-22T08:59:29;16.98;;;11.35;;
6388;SDS011;3227;42.654;23.360;2023-06-22T09:01:56;15.30;;;11.40;;
6388;SDS011;3227;42.654;23.360;2023-06-22T09:04:22;24.52;;;11.10;;
6388;SDS011;3227;42.654;23.360;2023-06-22T09:06:49;13.35;;;10.50;;
6388;SDS011;3227;42.654;23.360;2023-06-22T09:09:17;16.40;;;10.25;;
6388;SDS011;3227;42.654;23.360;2023-06-22T09:11:46;19.95;;;10.23;;
6388;SDS011;3227;42.654;23.360;2023-06-22T09:14:13;14.52;;;10.18;;
6388;SDS011;3227;42.654;23.360;2023-06-22T09:16:40;15.63;;;9.48;;
6388;SDS011;3227;42.654;23.360;2023-06-22T09:19:07;16.50;;;10.40;;
6388;SDS011;3227;42.654;23.360;2023-06-22T09:21:33;16.88;;;10.20;;
6388;SDS011;3227;42.654;23.360;2023-06-22T09:24:00;13.80;;;9.93;;
6388;SDS011;3227;42.654;23.360;2023-06-22T09:26:27;14.80;;;9.30;;
6388;SDS011;3227;42.654;23.360;2023-06-22T09:28:55;10.73;;;8.75;;
6388;SDS011;3227;42.654;23.360;2023-06-22T09:31:23;11.75;;;8.73;;
6388;SDS011;3227;42.654;23.360;2023-06-22T09:33:50;12.55;;;8.57;;
6388;SDS011;3227;42.654;23.360;2023-06-22T09:36:18;10.32;;;8.35;;
6388;SDS011;3227;42.654;23.360;2023-06-22T09:38:45;14.40;;;8.57;;
6388;SDS011;3227;42.654;23.360;2023-06-22T09:41:12;10.95;;;8.00;;
6388;SDS011;3227;42.654;23.360;2023-06-22T09:43:38;23.92;;;9.55;;
6388;SDS011;3227;42.654;23.360;2023-06-22T09:46:07;12.63;;;9.43;;
6388;SDS011;3227;42.654;23.360;2023-06-22T09:48:34;13.82;;;8.85;;
6388;SDS011;3227;42.654;23.360;2023-06-22T09:51:01;14.43;;;10.10;;
6388;SDS011;3227;42.654;23.360;2023-06-22T09:53:28;11.52;;;8.73;;
6388;SDS011;3227;42.654;23.360;2023-06-22T09:55:55;12.75;;;9.20;;
6388;SDS011;3227;42.654;23.360;2023-06-22T09:58:22;17.30;;;10.38;;
6388;SDS011;3227;42.654;23.360;2023-06-22T10:00:49;15.55;;;9.85;;
6388;SDS011;3227;42.654;23.360;2023-06-22T10:03:17;14.07;;;9.85;;
6388;SDS011;3227;42.654;23.360;2023-06-22T10:05:44;16.70;;;10.50;;
6388;SDS011;3227;42.654;23.360;2023-06-22T10:08:10;14.43;;;10.10;;
6388;SDS011;3227;42.654;23.360;2023-06-22T10:10:37;18.42;;;9.82;;
6388;SDS011;3227;42.654;23.360;2023-06-22T10:13:07;14.25;;;10.48;;
6388;SDS011;3227;42.654;23.360;2023-06-22T10:15:47;15.40;;;10.65;;
6388;SDS011;3227;42.654;23.360;2023-06-22T10:18:17;12.68;;;10.43;;
6388;SDS011;3227;42.654;23.360;2023-06-22T10:20:46;19.55;;;11.93;;
6388;SDS011;3227;42.654;23.360;2023-06-22T10:23:15;20.33;;;12.88;;
6388;SDS011;3227;42.654;23.360;2023-06-22T10:25:42;16.92;;;12.88;;
6388;SDS011;3227;42.654;23.360;2023-06-22T10:28:08;18.55;;;10.98;;
6388;SDS011;3227;42.654;23.360;2023-06-22T10:30:35;13.25;;;9.90;;
6388;SDS011;3227;42.654;23.360;2023-06-22T10:33:02;14.80;;;10.80;;
6388;SDS011;3227;42.654;23.360;2023-06-22T10:38:37;15.57;;;9.30;;
6388;SDS011;3227;42.654;23.360;2023-06-22T10:41:04;14.75;;;9.30;;
6388;SDS011;3227;42.654;23.360;2023-06-22T10:43:31;14.85;;;9.25;;
6388;SDS011;3227;42.654;23.360;2023-06-22T10:45:57;16.40;;;10.32;;
6388;SDS011;3227;42.654;23.360;2023-06-22T10:48:24;14.25;;;9.82;;
6388;SDS011;3227;42.654;23.360;2023-06-22T10:50:51;14.93;;;9.15;;
6388;SDS011;3227;42.654;23.360;2023-06-22T10:53:18;15.55;;;10.52;;
6388;SDS011;3227;42.654;23.360;2023-06-22T10:55:46;10.65;;;8.48;;
6388;SDS011;3227;42.654;23.360;2023-06-22T10:58:13;13.65;;;9.05;;
6388;SDS011;3227;42.654;23.360;2023-06-22T11:00:40;11.68;;;8.68;;
6388;SDS011;3227;42.654;23.360;2023-06-22T11:03:06;10.68;;;8.65;;
6388;SDS011;3227;42.654;23.360;2023-06-22T11:05:33;14.07;;;9.57;;
6388;SDS011;3227;42.654;23.360;2023-06-22T11:08:00;12.18;;;8.93;;
6388;SDS011;3227;42.654;23.360;2023-06-22T11:10:27;12.60;;;9.60;;
6388;SDS011;3227;42.654;23.360;2023-06-22T11:12:55;11.98;;;8.88;;
6388;SDS011;3227;42.654;23.360;2023-06-22T11:15:23;12.60;;;8.82;;
6388;SDS011;3227;42.654;23.360;2023-06-22T11:17:49;12.02;;;8.63;;
6388;SDS011;3227;42.654;23.360;2023-06-22T11:20:16;14.20;;;9.18;;
6388;SDS011;3227;42.654;23.360;2023-06-22T11:22:43;13.13;;;8.95;;
6388;SDS011;3227;42.654;23.360;2023-06-22T11:25:10;15.95;;;8.70;;
6388;SDS011;3227;42.654;23.360;2023-06-22T11:27:37;11.15;;;8.38;;
6388;SDS011;3227;42.654;23.360;2023-06-22T11:30:06;12.27;;;7.72;;
6388;SDS011;3227;42.654;23.360;2023-06-22T11:32:34;13.75;;;8.57;;
6388;SDS011;3227;42.654;23.360;2023-06-22T11:35:01;10.43;;;8.07;;
6388;SDS011;3227;42.654;23.360;2023-06-22T11:37:28;10.50;;;7.68;;
6388;SDS011;3227;42.654;23.360;2023-06-22T11:39:54;13.23;;;8.55;;
6388;SDS011;3227;42.654;23.360;2023-06-22T11:42:21;14.32;;;10.02;;
6388;SDS011;3227;42.654;23.360;2023-06-22T11:44:50;10.25;;;8.45;;
6388;SDS011;3227;42.654;23.360;2023-06-22T11:47:18;12.88;;;8.63;;
6388;SDS011;3227;42.654;23.360;2023-06-22T11:49:45;12.60;;;8.85;;
6388;SDS011;3227;42.654;23.360;2023-06-22T11:52:12;10.98;;;8.07;;
6388;SDS011;3227;42.654;23.360;2023-06-22T11:54:39;12.23;;;8.40;;
6388;SDS011;3227;42.654;23.360;2023-06-22T11:57:06;10.77;;;8.32;;
6388;SDS011;3227;42.654;23.360;2023-06-22T11:59:33;12.65;;;8.07;;
6388;SDS011;3227;42.654;23.360;2023-06-22T12:02:00;12.10;;;9.05;;
6388;SDS011;3227;42.654;23.360;2023-06-22T12:04:28;10.65;;;8.07;;
6388;SDS011;3227;42.654;23.360;2023-06-22T12:06:54;13.15;;;7.97;;
6388;SDS011;3227;42.654;23.360;2023-06-22T12:09:21;11.65;;;8.43;;
6388;SDS011;3227;42.654;23.360;2023-06-22T12:11:48;12.13;;;8.77;;
6388;SDS011;3227;42.654;23.360;2023-06-22T12:14:15;10.20;;;7.88;;
6388;SDS011;3227;42.654;23.360;2023-06-22T12:16:42;11.45;;;8.90;;
6388;SDS011;3227;42.654;23.360;2023-06-22T12:19:10;10.70;;;8.70;;
6388;SDS011;3227;42.654;23.360;2023-06-22T12:21:39;13.05;;;8.70;;
6388;SDS011;3227;42.654;23.360;2023-06-22T12:24:07;13.88;;;9.00;;
6388;SDS011;3227;42.654;23.360;2023-06-22T12:26:33;14.93;;;8.90;;
6388;SDS011;3227;42.654;23.360;2023-06-22T12:29:00;12.32;;;8.80;;
6388;SDS011;3227;42.654;23.360;2023-06-22T12:31:27;14.32;;;8.90;;
6388;SDS011;3227;42.654;23.360;2023-06-22T12:33:54;14.40;;;8.77;;
6388;SDS011;3227;42.654;23.360;2023-06-22T12:36:26;14.38;;;7.80;;
6388;SDS011;3227;42.654;23.360;2023-06-22T12:38:54;15.05;;;8.27;;
6388;SDS011;3227;42.654;23.360;2023-06-22T12:41:20;12.48;;;7.95;;
6388;SDS011;3227;42.654;23.360;2023-06-22T12:43:47;15.70;;;9.10;;
6388;SDS011;3227;42.654;23.360;2023-06-22T12:46:14;12.90;;;8.32;;
6388;SDS011;3227;42.654;23.360;2023-06-22T12:48:41;15.80;;;9.38;;
6388;SDS011;3227;42.654;23.360;2023-06-22T12:51:08;16.02;;;8.82;;
6388;SDS011;3227;42.654;23.360;2023-06-22T12:53:35;15.65;;;8.63;;
6388;SDS011;3227;42.654;23.360;2023-06-22T12:56:03;15.45;;;8.88;;
6388;SDS011;3227;42.654;23.360;2023-06-22T12:58:30;12.40;;;8.93;;
6388;SDS011;3227;42.654;23.360;2023-06-22T13:00:57;13.70;;;9.05;;
6388;SDS011;3227;42.654;23.360;2023-06-22T13:03:23;16.95;;;9.38;;
6388;SDS011;3227;42.654;23.360;2023-06-22T13:09:14;18.98;;;9.52;;
6388;SDS011;3227;42.654;23.360;2023-06-22T13:11:43;13.75;;;9.05;;
6388;SDS011;3227;42.654;23.360;2023-06-22T13:14:09;13.60;;;9.25;;
6388;SDS011;3227;42.654;23.360;2023-06-22T13:16:36;18.75;;;10.43;;
6388;SDS011;3227;42.654;23.360;2023-06-22T13:19:03;17.63;;;10.32;;
6388;SDS011;3227;42.654;23.360;2023-06-22T13:21:30;16.42;;;10.07;;
6388;SDS011;3227;42.654;23.360;2023-06-22T13:23:59;16.95;;;10.95;;
6388;SDS011;3227;42.654;23.360;2023-06-22T13:29:49;17.80;;;9.45;;
6388;SDS011;3227;42.654;23.360;2023-06-22T13:32:16;16.27;;;9.98;;
6388;SDS011;3227;42.654;23.360;2023-06-22T13:34:43;19.58;;;9.52;;
6388;SDS011;3227;42.654;23.360;2023-06-22T13:37:10;21.80;;;10.00;;
6388;SDS011;3227;42.654;23.360;2023-06-22T13:39:36;18.13;;;9.57;;
6388;SDS011;3227;42.654;23.360;2023-06-22T13:42:04;18.55;;;9.82;;
6388;SDS011;3227;42.654;23.360;2023-06-22T13:44:31;16.77;;;10.40;;
6388;SDS011;3227;42.654;23.360;2023-06-22T13:46:59;16.33;;;10.60;;
6388;SDS011;3227;42.654;23.360;2023-06-22T13:49:26;16.52;;;10.13;;
6388;SDS011;3227;42.654;23.360;2023-06-22T13:51:53;16.80;;;9.95;;
6388;SDS011;3227;42.654;23.360;2023-06-22T13:54:20;15.45;;;10.10;;
6388;SDS011;3227;42.654;23.360;2023-06-22T13:56:46;21.25;;;9.98;;
6388;SDS011;3227;42.654;23.360;2023-06-22T13:59:13;13.20;;;9.20;;
6388;SDS011;3227;42.654;23.360;2023-06-22T14:01:40;16.10;;;10.93;;
6388;SDS011;3227;42.654;23.360;2023-06-22T14:04:09;15.35;;;10.85;;
6388;SDS011;3227;42.654;23.360;2023-06-22T14:06:37;16.85;;;10.02;;
6388;SDS011;3227;42.654;23.360;2023-06-22T14:09:04;14.35;;;9.15;;
6388;SDS011;3227;42.654;23.360;2023-06-22T14:11:32;17.58;;;9.70;;
6388;SDS011;3227;42.654;23.360;2023-06-22T14:13:58;18.55;;;10.35;;
6388;SDS011;3227;42.654;23.360;2023-06-22T14:16:25;15.65;;;10.32;;
6388;SDS011;3227;42.654;23.360;2023-06-22T14:18:52;16.30;;;10.45;;
6388;SDS011;3227;42.654;23.360;2023-06-22T14:21:20;16.52;;;9.80;;
6388;SDS011;3227;42.654;23.360;2023-06-22T14:23:47;15.98;;;9.52;;
6388;SDS011;3227;42.654;23.360;2023-06-22T14:26:14;12.90;;;9.25;;
6388;SDS011;3227;42.654;23.360;2023-06-22T14:28:42;17.65;;;9.00;;
6388;SDS011;3227;42.654;23.360;2023-06-22T14:31:12;19.23;;;10.13;;
6388;SDS011;3227;42.654;23.360;2023-06-22T14:33:39;18.83;;;10.25;;
6388;SDS011;3227;42.654;23.360;2023-06-22T14:36:06;16.25;;;9.82;;
6388;SDS011;3227;42.654;23.360;2023-06-22T14:38:34;15.90;;;10.50;;
6388;SDS011;3227;42.654;23.360;2023-06-22T14:41:01;18.85;;;10.57;;
6388;SDS011;3227;42.654;23.360;2023-06-22T14:43:28;18.08;;;9.43;;
6388;SDS011;3227;42.654;23.360;2023-06-22T14:45:55;16.63;;;10.30;;
6388;SDS011;3227;42.654;23.360;2023-06-22T14:48:21;17.60;;;9.85;;
6388;SDS011;3227;42.654;23.360;2023-06-22T14:50:48;16.42;;;10.77;;
6388;SDS011;3227;42.654;23.360;2023-06-22T14:53:15;18.83;;;10.70;;
6388;SDS011;3227;42.654;23.360;2023-06-22T14:55:48;19.30;;;11.60;;